Time;durP1;ratioP1;P1;durP2;ratioP2;P2;SDS_P1;SDS_P2;PMS_P1;PMS_P2;Temp;Humidity;BMP_temperature;BMP_pressure;BME280_temperature;BME280_humidity;BME280_pressure;Samples;Min_cycle;Max_cycle;Signal;HPM_P1;HPM_P2
2023/08/07 00:01:45;;;;;;;5.50;3.85;;;16.40;99.90;;;;;;5114818;28;20039;-61
2023/08/07 00:04:10;;;;;;;4.88;3.00;;;16.30;99.90;;;;;;5113268;28;20044;-61
2023/08/07 00:06:36;;;;;;;3.13;2.58;;;16.30;99.90;;;;;;5114295;28;20088;-61
2023/08/07 00:09:02;;;;;;;10.65;3.45;;;16.30;99.90;;;;;;5114408;28;20043;-61
2023/08/07 00:11:28;;;;;;;4.20;2.67;;;16.40;99.90;;;;;;5114444;28;20043;-62
2023/08/07 00:13:54;;;;;;;4.55;2.30;;;16.40;99.90;;;;;;5112842;28;20040;-61
2023/08/07 00:16:19;;;;;;;6.28;2.67;;;16.40;99.90;;;;;;5113823;28;20111;-62
2023/08/07 00:18:45;;;;;;;7.47;2.75;;;16.40;99.90;;;;;;5114498;28;20039;-62
2023/08/07 00:21:11;;;;;;;6.78;2.67;;;16.40;99.90;;;;;;5114287;28;20039;-61
2023/08/07 00:23:36;;;;;;;5.63;2.35;;;16.40;99.90;;;;;;5114114;28;20032;-60
2023/08/07 00:26:02;;;;;;;5.68;2.67;;;16.30;99.90;;;;;;5114361;28;20048;-61
2023/08/07 00:28:29;;;;;;;6.57;2.40;;;16.30;99.90;;;;;;5114385;28;20073;-62
2023/08/07 00:30:55;;;;;;;5.93;2.42;;;16.20;99.90;;;;;;5114132;28;20046;-61
2023/08/07 00:33:20;;;;;;;5.50;2.33;;;16.20;99.90;;;;;;5114097;28;20078;-62
2023/08/07 00:35:46;;;;;;;7.90;2.80;;;16.20;99.90;;;;;;5114574;28;20044;-61
2023/08/07 00:38:12;;;;;;;5.07;2.40;;;16.20;99.90;;;;;;5113978;28;20046;-62
2023/08/07 00:40:39;;;;;;;4.43;2.20;;;16.10;99.90;;;;;;5114264;28;20049;-60
2023/08/07 00:43:05;;;;;;;4.10;2.10;;;16.10;99.90;;;;;;5114158;28;20130;-61
2023/08/07 00:45:36;;;;;;;3.42;2.33;;;16.10;99.90;;;;;;5114461;28;20086;-62
2023/08/07 00:48:02;;;;;;;6.85;2.35;;;16.00;99.90;;;;;;5113989;28;20043;-61
2023/08/07 00:50:28;;;;;;;6.88;2.40;;;16.00;99.90;;;;;;5112551;28;20104;-61
2023/08/07 00:52:55;;;;;;;4.13;2.17;;;16.10;99.90;;;;;;5113535;28;20035;-61
2023/08/07 00:55:20;;;;;;;3.22;1.98;;;16.00;99.90;;;;;;5113726;28;20047;-60
2023/08/07 00:57:46;;;;;;;7.00;2.22;;;16.00;99.90;;;;;;5114157;28;20367;-61
2023/08/07 01:00:13;;;;;;;4.47;2.10;;;16.00;99.90;;;;;;5113843;28;20477;-60
2023/08/07 01:02:39;;;;;;;5.05;2.25;;;15.90;99.90;;;;;;5113685;28;20055;-59
2023/08/07 01:05:05;;;;;;;5.18;2.05;;;15.80;99.90;;;;;;5112344;28;20035;-61
2023/08/07 01:07:30;;;;;;;4.38;2.40;;;16.00;99.90;;;;;;5106569;28;20091;-61
2023/08/07 01:09:57;;;;;;;3.90;2.30;;;15.90;99.90;;;;;;5113513;28;20031;-62
2023/08/07 01:12:35;;;;;;;3.13;2.25;;;15.90;99.90;;;;;;5113430;28;20046;-62
2023/08/07 01:15:14;;;;;;;6.43;2.07;;;15.90;99.90;;;;;;5113487;28;20039;-60
2023/08/07 01:17:42;;;;;;;6.30;2.30;;;15.80;99.90;;;;;;5112606;28;20497;-60
2023/08/07 01:20:08;;;;;;;;;;;15.80;99.90;;;;;;5114232;28;20036;-60
2023/08/07 01:22:34;;;;;;;4.90;2.10;;;15.80;99.90;;;;;;5113242;28;20361;-60
2023/08/07 01:25:00;;;;;;;4.30;2.50;;;15.80;99.90;;;;;;5113324;28;20035;-60
2023/08/07 01:27:36;;;;;;;11.07;2.70;;;15.70;99.90;;;;;;5113402;28;20039;-60
2023/08/07 01:30:28;;;;;;;3.10;2.30;;;15.70;99.90;;;;;;5113056;28;20067;-60
2023/08/07 01:33:19;;;;;;;4.47;2.50;;;15.60;99.90;;;;;;5113207;28;20035;-60
2023/08/07 01:35:49;;;;;;;5.00;3.05;;;15.60;99.90;;;;;;5112422;28;20385;-60
2023/08/07 01:38:16;;;;;;;6.00;2.85;;;15.60;99.90;;;;;;5113064;28;20039;-61
2023/08/07 01:40:42;;;;;;;21.23;5.05;;;15.50;99.90;;;;;;5112739;28;20043;-59
2023/08/07 01:43:09;;;;;;;6.53;3.05;;;15.50;99.90;;;;;;5113019;28;20096;-60
2023/08/07 01:45:34;;;;;;;4.95;2.80;;;15.40;99.90;;;;;;5111511;28;20040;-60
2023/08/07 01:48:00;;;;;;;5.95;2.95;;;15.40;99.90;;;;;;5111393;28;20065;-60
2023/08/07 01:50:26;;;;;;;4.20;2.80;;;15.20;99.90;;;;;;5112810;28;20038;-61
2023/08/07 01:52:52;;;;;;;6.47;3.20;;;15.20;99.90;;;;;;5112924;28;20036;-59
2023/08/07 01:55:20;;;;;;;6.57;2.90;;;15.30;99.90;;;;;;5112768;28;20036;-60
2023/08/07 01:57:45;;;;;;;6.75;2.63;;;15.20;99.90;;;;;;5112602;27;20485;-62
2023/08/07 02:00:11;;;;;;;6.28;2.53;;;15.10;99.90;;;;;;5112724;28;20042;-61
2023/08/07 02:02:38;;;;;;;7.07;2.33;;;15.10;99.90;;;;;;5111729;28;20572;-61
2023/08/07 02:05:04;;;;;;;8.07;2.58;;;15.10;99.90;;;;;;5112424;28;20037;-59
2023/08/07 02:07:30;;;;;;;8.98;2.70;;;15.10;99.90;;;;;;5112635;28;20039;-60
2023/08/07 02:09:56;;;;;;;10.20;2.55;;;15.10;99.90;;;;;;5112275;28;20036;-60
2023/08/07 02:12:22;;;;;;;4.47;2.05;;;15.10;99.90;;;;;;5112725;28;20108;-60
2023/08/07 02:14:48;;;;;;;6.88;2.38;;;15.10;99.90;;;;;;5112447;28;20509;-60
2023/08/07 02:17:14;;;;;;;10.00;2.83;;;15.10;99.90;;;;;;5112978;28;20047;-59
2023/08/07 02:19:39;;;;;;;8.05;2.40;;;15.00;99.90;;;;;;5112696;28;20040;-59
2023/08/07 02:22:05;;;;;;;9.07;2.08;;;15.10;99.90;;;;;;5112355;28;20101;-60
2023/08/07 02:24:31;;;;;;;13.20;2.70;;;15.00;99.90;;;;;;5110931;28;20115;-60
2023/08/07 02:26:56;;;;;;;8.88;2.83;;;15.00;99.90;;;;;;5112470;28;20119;-60
2023/08/07 02:29:22;;;;;;;12.40;2.90;;;15.10;99.90;;;;;;5110949;28;20077;-60
2023/08/07 02:31:48;;;;;;;10.95;2.80;;;15.00;99.90;;;;;;5112345;28;20036;-60
2023/08/07 02:34:13;;;;;;;9.95;2.70;;;15.00;99.90;;;;;;5112803;28;20046;-60
2023/08/07 02:36:39;;;;;;;8.35;2.45;;;15.00;99.90;;;;;;5112131;28;20389;-60
2023/08/07 02:39:05;;;;;;;13.27;3.15;;;15.00;99.90;;;;;;5118366;28;20067;-61
2023/08/07 02:41:31;;;;;;;10.23;2.58;;;15.00;99.90;;;;;;5119023;27;20041;-61
2023/08/07 02:43:57;;;;;;;13.00;2.58;;;15.00;99.90;;;;;;5119528;27;20047;-61
2023/08/07 02:46:23;;;;;;;9.20;2.40;;;15.00;99.90;;;;;;5118576;27;20098;-60
2023/08/07 02:48:48;;;;;;;6.05;2.78;;;15.10;99.90;;;;;;5119101;27;20079;-60
2023/08/07 02:51:14;;;;;;;10.93;2.95;;;15.20;99.90;;;;;;5118808;27;20043;-61
2023/08/07 02:53:39;;;;;;;11.93;3.38;;;15.20;99.90;;;;;;5118544;27;20032;-61
2023/08/07 02:56:05;;;;;;;8.07;2.33;;;15.30;99.90;;;;;;5119138;27;20035;-61
2023/08/07 02:58:31;;;;;;;5.22;2.17;;;15.40;99.90;;;;;;5117894;27;20054;-61
2023/08/07 03:00:56;;;;;;;11.35;3.13;;;15.40;99.90;;;;;;5119726;27;20044;-62
2023/08/07 03:03:22;;;;;;;10.05;2.60;;;15.30;99.90;;;;;;5118658;27;20040;-61
2023/08/07 03:05:52;;;;;;;8.93;2.55;;;15.40;99.90;;;;;;5118904;27;20132;-61
2023/08/07 03:08:17;;;;;;;12.48;3.40;;;15.40;99.90;;;;;;5118736;27;20040;-62
2023/08/07 03:10:57;;;;;;;10.05;3.10;;;15.30;99.90;;;;;;5118631;27;20050;-60
2023/08/07 03:13:23;;;;;;;8.27;3.15;;;15.30;99.90;;;;;;5117233;28;20397;-61
2023/08/07 03:15:50;;;;;;;8.02;2.75;;;15.30;99.90;;;;;;5118416;27;20040;-61
2023/08/07 03:18:16;;;;;;;15.20;3.15;;;15.30;99.90;;;;;;5118525;27;20023;-60
2023/08/07 03:20:43;;;;;;;10.60;2.50;;;15.30;99.90;;;;;;5118470;27;20092;-61
2023/08/07 03:23:09;;;;;;;7.72;2.95;;;15.40;99.90;;;;;;5118519;27;20147;-60
2023/08/07 03:25:35;;;;;;;7.00;2.08;;;15.30;99.90;;;;;;5118582;27;20123;-61
2023/08/07 03:28:01;;;;;;;10.50;2.22;;;15.40;99.90;;;;;;5118598;27;20114;-62
2023/08/07 03:30:26;;;;;;;6.38;1.63;;;15.40;99.90;;;;;;5118513;27;20085;-61
2023/08/07 03:32:52;;;;;;;5.78;1.98;;;15.50;99.90;;;;;;5118281;27;20465;-61
2023/08/07 03:35:18;;;;;;;7.13;1.58;;;15.60;99.90;;;;;;5118180;27;20036;-61
2023/08/07 03:37:43;;;;;;;7.70;2.00;;;15.60;99.90;;;;;;5118725;27;20075;-61
2023/08/07 03:40:11;;;;;;;10.38;2.20;;;15.70;99.90;;;;;;5118421;27;20079;-62
2023/08/07 03:42:36;;;;;;;6.10;1.77;;;15.60;99.90;;;;;;5118615;27;20051;-62
2023/08/07 03:45:02;;;;;;;5.65;1.58;;;15.70;99.90;;;;;;5118532;27;20039;-61
2023/08/07 03:47:28;;;;;;;4.15;1.55;;;15.70;99.90;;;;;;5118279;27;20405;-62
2023/08/07 03:49:53;;;;;;;10.15;1.83;;;15.70;99.90;;;;;;5115123;27;20047;-62
2023/08/07 03:52:19;;;;;;;9.15;2.00;;;15.70;99.90;;;;;;5115138;28;20058;-61
2023/08/07 03:54:45;;;;;;;10.88;2.40;;;15.80;99.90;;;;;;5115031;28;20101;-61
2023/08/07 03:57:10;;;;;;;9.35;3.22;;;15.70;99.90;;;;;;5114999;28;20032;-62
2023/08/07 03:59:36;;;;;;;11.00;3.60;;;15.70;99.90;;;;;;5115107;28;20531;-61
2023/08/07 04:02:02;;;;;;;7.63;2.22;;;15.70;99.90;;;;;;5113815;28;20044;-60
2023/08/07 04:04:28;;;;;;;16.85;2.97;;;15.70;99.90;;;;;;5115148;28;20461;-62
2023/08/07 04:06:54;;;;;;;13.18;3.20;;;15.70;99.90;;;;;;5115024;28;20088;-62
2023/08/07 04:09:19;;;;;;;12.32;3.20;;;15.80;99.90;;;;;;5114513;28;20133;-62
2023/08/07 04:11:45;;;;;;;22.08;3.65;;;15.80;99.90;;;;;;5113633;27;20051;-62
2023/08/07 04:14:11;;;;;;;17.42;3.83;;;15.80;99.90;;;;;;5114814;28;20051;-62
2023/08/07 04:16:37;;;;;;;12.45;3.70;;;15.70;99.90;;;;;;5114488;28;20073;-61
2023/08/07 04:19:03;;;;;;;11.00;3.97;;;15.70;99.90;;;;;;5114352;28;20092;-62
2023/08/07 04:21:30;;;;;;;15.73;3.72;;;15.70;99.90;;;;;;5114277;28;20059;-62
2023/08/07 04:23:56;;;;;;;14.65;2.90;;;15.70;99.90;;;;;;5114224;28;20485;-62
2023/08/07 04:26:21;;;;;;;13.23;3.10;;;15.80;99.90;;;;;;5114644;28;20035;-61
2023/08/07 04:28:47;;;;;;;13.45;2.75;;;15.80;99.90;;;;;;5114221;28;20088;-61
2023/08/07 04:31:12;;;;;;;12.40;2.97;;;15.70;99.90;;;;;;5114614;28;20035;-60
2023/08/07 04:33:38;;;;;;;8.38;2.70;;;15.60;99.90;;;;;;5114517;28;20048;-60
2023/08/07 04:36:04;;;;;;;8.32;2.92;;;15.70;99.90;;;;;;5114403;28;20027;-60
2023/08/07 04:38:30;;;;;;;15.52;3.55;;;15.60;99.90;;;;;;5114736;28;20071;-59
2023/08/07 04:40:55;;;;;;;14.65;2.90;;;15.60;99.90;;;;;;5112758;28;20091;-60
2023/08/07 04:43:21;;;;;;;9.88;2.75;;;15.60;99.90;;;;;;5114305;28;20035;-60
2023/08/07 04:45:47;;;;;;;15.95;2.92;;;15.50;99.90;;;;;;5114232;28;20035;-61
2023/08/07 04:48:14;;;;;;;10.30;3.25;;;15.50;99.90;;;;;;5113099;28;20371;-60
2023/08/07 04:50:40;;;;;;;13.93;3.47;;;15.60;99.90;;;;;;5102600;28;20039;-60
2023/08/07 04:53:05;;;;;;;11.77;2.97;;;15.60;99.90;;;;;;5113316;28;20036;-61
2023/08/07 04:55:32;;;;;;;9.50;2.70;;;15.60;99.90;;;;;;5114479;28;20087;-60
2023/08/07 04:57:58;;;;;;;21.70;4.18;;;15.60;99.90;;;;;;5113930;28;20434;-60
2023/08/07 05:00:24;;;;;;;14.98;3.25;;;15.50;99.90;;;;;;5113710;28;20110;-60
2023/08/07 05:02:50;;;;;;;12.23;3.17;;;15.60;99.90;;;;;;5113641;28;20150;-60
2023/08/07 05:05:16;;;;;;;16.50;3.67;;;15.70;99.90;;;;;;5113991;28;20067;-60
2023/08/07 05:07:42;;;;;;;16.63;3.33;;;15.70;99.90;;;;;;5113870;28;20040;-59
2023/08/07 05:10:09;;;;;;;11.80;3.13;;;15.70;99.90;;;;;;5113886;28;20052;-59
2023/08/07 05:12:35;;;;;;;16.33;2.92;;;15.70;99.90;;;;;;5114200;28;20386;-60
2023/08/07 05:15:00;;;;;;;12.15;2.90;;;15.70;99.90;;;;;;5114052;28;20046;-60
2023/08/07 05:17:26;;;;;;;14.07;3.38;;;15.70;99.90;;;;;;5113731;28;20385;-60
2023/08/07 05:19:52;;;;;;;11.93;3.25;;;15.70;99.90;;;;;;5109527;28;20036;-60
2023/08/07 05:22:17;;;;;;;14.88;3.38;;;15.80;99.90;;;;;;5111938;28;20143;-60
2023/08/07 05:24:44;;;;;;;14.75;3.75;;;15.80;99.90;;;;;;5112305;28;20036;-60
2023/08/07 05:27:10;;;;;;;19.15;3.80;;;15.80;99.90;;;;;;5113204;28;20114;-61
2023/08/07 05:29:43;;;;;;;18.63;3.70;;;15.90;99.90;;;;;;5112262;28;20100;-61
2023/08/07 05:32:10;;;;;;;14.40;3.63;;;15.90;99.90;;;;;;5113431;28;20057;-60
2023/08/07 05:34:36;;;;;;;16.65;4.18;;;15.80;99.90;;;;;;5113410;28;20043;-59
2023/08/07 05:37:01;;;;;;;23.70;5.10;;;15.80;99.90;;;;;;5113009;28;20032;-60
2023/08/07 05:39:27;;;;;;;15.63;3.45;;;15.90;99.90;;;;;;5113184;28;20039;-59
2023/08/07 05:41:54;;;;;;;12.20;3.20;;;15.90;99.90;;;;;;5112994;28;20078;-59
2023/08/07 05:44:20;;;;;;;13.10;3.55;;;16.00;99.90;;;;;;5113054;28;20031;-60
2023/08/07 05:46:46;;;;;;;14.50;3.35;;;16.10;99.90;;;;;;5113068;28;20047;-59
2023/08/07 05:49:11;;;;;;;14.50;3.55;;;16.20;99.90;;;;;;5112908;27;20126;-60
2023/08/07 05:51:37;;;;;;;14.80;3.20;;;16.20;99.90;;;;;;5112982;28;20043;-60
2023/08/07 05:54:02;;;;;;;10.15;2.88;;;16.30;99.90;;;;;;5113011;28;20024;-60
2023/08/07 05:56:28;;;;;;;15.57;3.10;;;16.10;99.90;;;;;;5113071;28;20035;-60
2023/08/07 05:58:54;;;;;;;11.52;2.72;;;16.10;99.90;;;;;;5112815;28;20047;-59
2023/08/07 06:01:19;;;;;;;12.10;3.00;;;16.20;99.90;;;;;;5112933;28;20034;-59
2023/08/07 06:03:46;;;;;;;17.27;3.40;;;16.20;99.90;;;;;;5112986;28;20035;-60
2023/08/07 06:06:12;;;;;;;10.77;2.53;;;16.20;99.90;;;;;;5113041;28;20036;-60
2023/08/07 06:08:38;;;;;;;10.63;3.10;;;16.20;99.90;;;;;;5111793;28;20512;-60
2023/08/07 06:11:05;;;;;;;9.15;2.88;;;16.20;99.90;;;;;;5112403;28;20042;-60
2023/08/07 06:13:30;;;;;;;12.98;3.50;;;16.20;99.90;;;;;;5111936;28;20043;-60
2023/08/07 06:15:56;;;;;;;12.35;2.88;;;16.20;99.90;;;;;;5112671;28;20153;-61
2023/08/07 06:18:22;;;;;;;13.68;2.72;;;16.20;99.90;;;;;;5112904;28;20466;-60
2023/08/07 06:20:47;;;;;;;12.43;2.72;;;16.10;99.90;;;;;;5112609;28;20079;-60
2023/08/07 06:23:13;;;;;;;13.73;3.00;;;16.30;99.90;;;;;;5112660;28;20042;-59
2023/08/07 06:25:39;;;;;;;11.68;2.75;;;16.30;99.90;;;;;;5112288;28;20175;-60
2023/08/07 06:28:04;;;;;;;14.82;3.13;;;16.30;99.90;;;;;;5112572;28;20069;-60
2023/08/07 06:30:33;;;;;;;13.43;2.40;;;16.30;99.90;;;;;;5112133;28;20043;-60
2023/08/07 06:32:58;;;;;;;22.98;3.78;;;16.40;99.90;;;;;;5111077;28;20130;-60
2023/08/07 06:35:24;;;;;;;9.68;2.70;;;16.50;99.90;;;;;;5111015;28;20110;-60
2023/08/07 06:37:49;;;;;;;13.48;3.35;;;16.80;99.90;;;;;;5112440;28;20118;-60
2023/08/07 06:40:15;;;;;;;11.32;2.47;;;16.80;99.90;;;;;;5112393;28;20043;-60
2023/08/07 06:42:41;;;;;;;9.82;2.28;;;16.60;99.90;;;;;;5112572;28;20390;-60
2023/08/07 06:45:07;;;;;;;7.50;2.00;;;16.50;99.90;;;;;;5112266;28;20501;-60
2023/08/07 06:47:32;;;;;;;9.85;2.35;;;16.40;99.90;;;;;;5111865;28;20046;-60
2023/08/07 06:49:58;;;;;;;11.30;2.80;;;16.20;99.90;;;;;;5112407;28;20466;-61
2023/08/07 06:52:24;;;;;;;7.82;2.28;;;16.20;99.90;;;;;;5111892;28;20462;-60
2023/08/07 06:54:49;;;;;;;15.05;2.80;;;16.20;99.90;;;;;;5112056;28;20524;-60
2023/08/07 06:57:15;;;;;;;12.70;2.53;;;16.10;99.90;;;;;;5112491;28;20039;-60
2023/08/07 06:59:41;;;;;;;11.45;2.97;;;16.20;99.90;;;;;;5112127;28;20127;-60
2023/08/07 07:02:06;;;;;;;14.35;3.15;;;16.10;99.90;;;;;;5112508;28;20047;-60
2023/08/07 07:04:32;;;;;;;15.70;3.90;;;16.10;99.90;;;;;;5112305;28;20036;-61
2023/08/07 07:06:58;;;;;;;8.65;2.67;;;15.90;99.90;;;;;;5112231;28;20188;-61
2023/08/07 07:09:24;;;;;;;10.63;2.35;;;15.70;99.90;;;;;;5112301;28;20119;-62
2023/08/07 07:11:50;;;;;;;12.77;2.60;;;15.60;99.90;;;;;;5112552;28;20036;-61
2023/08/07 07:14:15;;;;;;;10.45;3.55;;;15.40;99.90;;;;;;5112516;28;20040;-62
2023/08/07 07:16:42;;;;;;;12.05;3.13;;;15.20;99.90;;;;;;5112506;28;20039;-61
2023/08/07 07:19:09;;;;;;;8.32;2.22;;;15.20;99.90;;;;;;5112354;28;20050;-62
2023/08/07 07:21:35;;;;;;;12.65;2.65;;;15.20;99.90;;;;;;5112765;28;20035;-61
2023/08/07 07:24:02;;;;;;;11.55;3.13;;;15.20;99.90;;;;;;5113693;28;20040;-60
2023/08/07 07:26:27;;;;;;;9.88;3.03;;;15.20;99.90;;;;;;5115940;28;20039;-62
2023/08/07 07:28:53;;;;;;;16.92;3.70;;;15.10;99.90;;;;;;5116590;28;20358;-60
2023/08/07 07:31:19;;;;;;;9.65;3.25;;;15.20;99.90;;;;;;5116059;28;20050;-61
2023/08/07 07:33:46;;;;;;;13.90;3.45;;;15.10;99.90;;;;;;5115769;28;20035;-61
2023/08/07 07:36:18;;;;;;;7.43;2.28;;;15.20;99.90;;;;;;5115807;28;20032;-61
2023/08/07 07:38:47;;;;;;;8.18;2.50;;;15.10;99.90;;;;;;5115470;28;20044;-61
2023/08/07 07:41:14;;;;;;;15.90;3.13;;;15.10;99.90;;;;;;5115480;28;20035;-61
2023/08/07 07:43:40;;;;;;;13.85;4.05;;;15.40;99.90;;;;;;5115648;28;20042;-61
2023/08/07 07:46:06;;;;;;;8.05;2.80;;;15.60;99.90;;;;;;5115297;28;20466;-60
2023/08/07 07:48:31;;;;;;;14.55;3.50;;;15.80;99.90;;;;;;5115161;28;20112;-60
2023/08/07 07:51:01;;;;;;;15.90;4.00;;;15.90;99.90;;;;;;5115022;28;20032;-60
2023/08/07 07:53:27;;;;;;;16.30;4.10;;;16.00;99.90;;;;;;5115257;28;20457;-61
2023/08/07 07:55:52;;;;;;;10.85;3.42;;;15.90;99.90;;;;;;5114691;28;20067;-60
2023/08/07 07:58:19;;;;;;;16.23;3.75;;;15.90;99.90;;;;;;5115331;28;20067;-61
2023/08/07 08:00:44;;;;;;;12.65;3.10;;;15.70;99.90;;;;;;5115019;28;20047;-60
2023/08/07 08:03:10;;;;;;;12.52;3.22;;;15.60;99.90;;;;;;5114207;28;20031;-61
2023/08/07 08:05:35;;;;;;;8.38;2.78;;;15.50;99.90;;;;;;5115087;28;20079;-61
2023/08/07 08:08:01;;;;;;;13.02;3.40;;;15.30;99.90;;;;;;5114591;28;20397;-60
2023/08/07 08:10:27;;;;;;;12.32;3.10;;;15.30;99.90;;;;;;5115389;28;20035;-61
2023/08/07 08:12:56;;;;;;;11.00;3.10;;;15.10;99.90;;;;;;5114629;28;20031;-60
2023/08/07 08:15:22;;;;;;;10.48;3.08;;;15.10;99.90;;;;;;5114569;28;20038;-61
2023/08/07 08:17:48;;;;;;;7.88;2.83;;;15.00;99.90;;;;;;5114853;28;20031;-61
2023/08/07 08:20:20;;;;;;;14.90;3.85;;;15.00;99.90;;;;;;5114742;28;20042;-61
2023/08/07 08:22:46;;;;;;;12.52;3.33;;;15.20;99.90;;;;;;5114511;28;20366;-61
2023/08/07 08:25:12;;;;;;;7.82;3.35;;;15.30;99.90;;;;;;5114845;28;20427;-60
2023/08/07 08:27:39;;;;;;;16.98;3.90;;;15.60;99.90;;;;;;5114516;28;20036;-60
2023/08/07 08:30:05;;;;;;;14.40;4.22;;;16.00;99.90;;;;;;5114839;28;20039;-59
2023/08/07 08:32:31;;;;;;;13.13;3.85;;;16.30;99.90;;;;;;5113146;28;20031;-61
2023/08/07 08:34:57;;;;;;;11.50;3.47;;;16.40;99.90;;;;;;5113073;28;20043;-61
2023/08/07 08:37:22;;;;;;;12.98;3.45;;;16.70;99.90;;;;;;5114188;28;20031;-60
2023/08/07 08:39:48;;;;;;;11.35;3.00;;;17.00;99.90;;;;;;5114346;28;20097;-60
2023/08/07 08:42:18;;;;;;;10.40;2.92;;;16.90;99.90;;;;;;5114655;28;20043;-59
2023/08/07 08:44:51;;;;;;;12.18;3.78;;;16.80;99.90;;;;;;5114509;28;20044;-59
2023/08/07 08:47:16;;;;;;;13.38;3.35;;;17.20;99.90;;;;;;5114159;28;20097;-60
2023/08/07 08:49:49;;;;;;;9.68;2.72;;;17.30;99.90;;;;;;5114095;28;20047;-60
2023/08/07 08:52:15;;;;;;;9.75;2.25;;;17.20;99.90;;;;;;5114272;28;20082;-58
2023/08/07 08:54:42;;;;;;;9.82;2.42;;;17.30;99.90;;;;;;5114113;28;20036;-59
2023/08/07 08:57:08;;;;;;;17.48;3.53;;;17.40;99.90;;;;;;5114131;27;20035;-60
2023/08/07 08:59:34;;;;;;;10.55;3.05;;;17.50;99.90;;;;;;5114347;28;20036;-60
2023/08/07 09:01:59;;;;;;;8.90;2.50;;;17.70;99.90;;;;;;5100586;28;20032;-61
2023/08/07 09:04:25;;;;;;;12.70;3.00;;;17.90;99.90;;;;;;5113744;28;20477;-60
2023/08/07 09:06:51;;;;;;;10.77;2.47;;;17.80;99.90;;;;;;5114402;28;20043;-60
2023/08/07 09:09:21;;;;;;;7.90;2.58;;;17.80;99.90;;;;;;5113851;28;20473;-60
2023/08/07 09:11:47;;;;;;;8.82;2.47;;;17.90;99.90;;;;;;5114004;28;20047;-60
2023/08/07 09:14:22;;;;;;;9.93;2.17;;;18.20;99.90;;;;;;5114069;28;20031;-60
2023/08/07 09:16:49;;;;;;;10.15;2.40;;;18.10;99.90;;;;;;5113911;28;20501;-59
2023/08/07 09:19:15;;;;;;;11.35;3.60;;;18.00;99.90;;;;;;5113635;28;20492;-60
2023/08/07 09:21:40;;;;;;;8.10;2.40;;;18.20;99.90;;;;;;5113687;28;20031;-60
2023/08/07 09:24:06;;;;;;;7.97;2.70;;;18.30;99.90;;;;;;5113689;28;20042;-60
2023/08/07 09:26:35;;;;;;;9.35;2.55;;;18.30;99.90;;;;;;5113806;28;20035;-60
2023/08/07 09:29:02;;;;;;;11.10;2.97;;;18.50;99.90;;;;;;5113821;28;20431;-60
2023/08/07 09:31:30;;;;;;;10.27;2.67;;;18.60;99.90;;;;;;5113401;28;20392;-60
2023/08/07 09:34:03;;;;;;;11.20;2.47;;;18.50;99.90;;;;;;5113428;27;20062;-60
2023/08/07 09:36:33;;;;;;;10.65;2.60;;;18.50;99.90;;;;;;5113621;28;20509;-60
2023/08/07 09:39:03;;;;;;;10.57;2.97;;;18.80;99.90;;;;;;5113482;28;20040;-60
2023/08/07 09:41:29;;;;;;;9.25;2.65;;;18.40;99.90;;;;;;5113368;28;20080;-61
2023/08/07 09:44:06;;;;;;;9.48;2.55;;;18.20;99.90;;;;;;5113264;28;20031;-61
2023/08/07 09:46:37;;;;;;;9.27;2.30;;;18.20;99.90;;;;;;5112956;27;20031;-59
2023/08/07 09:49:02;;;;;;;15.75;2.30;;;18.40;99.90;;;;;;5112792;28;20042;-60
2023/08/07 09:51:42;;;;;;;8.25;2.28;;;18.60;99.90;;;;;;5113257;28;20036;-60
2023/08/07 09:54:07;;;;;;;6.30;2.15;;;18.50;99.90;;;;;;5113090;28;20419;-61
2023/08/07 09:56:35;;;;;;;9.93;2.42;;;18.30;99.90;;;;;;5113298;28;20046;-61
2023/08/07 09:59:01;;;;;;;10.68;2.42;;;18.20;99.90;;;;;;5113456;28;20111;-61
2023/08/07 10:01:26;;;;;;;8.50;2.53;;;17.90;99.90;;;;;;5113051;28;20111;-61
2023/08/07 10:03:52;;;;;;;9.68;2.83;;;17.70;99.90;;;;;;5112933;27;20100;-60
2023/08/07 10:06:19;;;;;;;10.52;2.25;;;17.50;99.90;;;;;;5113495;28;20036;-60
2023/08/07 10:08:45;;;;;;;5.60;2.17;;;17.50;99.90;;;;;;5099689;28;20050;-60
2023/08/07 10:11:11;;;;;;;9.38;2.25;;;17.40;99.90;;;;;;5113192;28;20123;-62
2023/08/07 10:13:38;;;;;;;8.63;2.83;;;17.40;99.90;;;;;;5112784;27;20039;-59
2023/08/07 10:16:04;;;;;;;8.82;2.58;;;17.50;99.90;;;;;;5111823;28;20034;-61
2023/08/07 10:18:30;;;;;;;14.25;2.67;;;17.40;99.90;;;;;;5112965;28;20115;-62
2023/08/07 10:20:58;;;;;;;11.80;2.72;;;17.40;99.90;;;;;;5104083;28;20461;-61
2023/08/07 10:23:23;;;;;;;8.17;3.23;;;17.40;99.90;;;;;;5112877;28;20040;-61
2023/08/07 10:25:50;;;;;;;14.07;3.42;;;17.70;99.90;;;;;;5103547;28;20059;-61
2023/08/07 10:28:18;;;;;;;14.35;2.63;;;17.80;99.90;;;;;;5113022;28;20734;-61
2023/08/07 10:30:44;;;;;;;15.68;3.70;;;17.80;99.90;;;;;;5112888;28;20050;-62
2023/08/07 10:33:12;;;;;;;8.93;2.60;;;17.80;99.90;;;;;;5112643;28;20044;-62
2023/08/07 10:35:46;;;;;;;13.97;3.00;;;17.50;99.90;;;;;;5111665;28;20446;-60
2023/08/07 10:38:11;;;;;;;10.13;2.88;;;17.60;99.90;;;;;;5112674;28;20035;-59
2023/08/07 10:41:03;;;;;;;14.15;3.05;;;17.80;99.90;;;;;;5113167;28;20389;-61
2023/08/07 10:43:30;;;;;;;11.30;3.00;;;17.80;99.90;;;;;;5090169;28;20087;-60
2023/08/07 10:46:14;;;;;;;7.10;2.60;;;17.70;99.90;;;;;;5089562;28;20165;-61
2023/08/07 10:48:43;;;;;;;7.25;3.15;;;17.60;99.90;;;;;;5072763;28;20052;-61
2023/08/07 10:51:13;;;;;;;10.63;2.70;;;17.60;99.90;;;;;;5082205;28;20090;-60
2023/08/07 10:53:48;;;;;;;10.02;2.25;;;17.90;99.90;;;;;;5089866;28;20044;-61
2023/08/07 10:56:34;;;;;;;3.53;1.90;;;18.20;99.90;;;;;;5082050;28;20079;-61
2023/08/07 10:59:09;;;;;;;4.93;1.55;;;18.50;99.90;;;;;;5091372;28;20048;-60
2023/08/07 11:01:37;;;;;;;7.13;1.77;;;18.60;99.90;;;;;;5094002;28;20056;-60
2023/08/07 11:04:14;;;;;;;11.38;2.17;;;18.90;99.90;;;;;;5088859;28;20035;-61
2023/08/07 11:06:42;;;;;;;5.45;1.73;;;18.70;99.90;;;;;;5093391;28;20532;-61
2023/08/07 11:09:09;;;;;;;9.88;2.45;;;18.50;99.90;;;;;;5094385;28;20624;-61
2023/08/07 11:11:46;;;;;;;5.43;2.13;;;18.20;99.90;;;;;;5093598;28;20038;-61
2023/08/07 11:14:14;;;;;;;7.80;2.40;;;18.00;99.90;;;;;;5093785;28;20051;-61
2023/08/07 11:16:40;;;;;;;9.00;2.63;;;18.00;99.90;;;;;;5094082;28;20043;-61
2023/08/07 11:19:07;;;;;;;8.95;2.00;;;18.10;99.90;;;;;;5093778;28;20805;-60
2023/08/07 11:21:34;;;;;;;5.65;1.90;;;18.00;99.90;;;;;;5109359;28;20050;-61
2023/08/07 11:24:00;;;;;;;6.88;2.00;;;17.90;99.90;;;;;;5116740;28;20408;-61
2023/08/07 11:26:27;;;;;;;9.77;2.42;;;17.90;99.90;;;;;;5109824;28;20055;-61
2023/08/07 11:28:54;;;;;;;10.27;2.33;;;17.80;99.90;;;;;;5116510;28;20063;-61
2023/08/07 11:31:20;;;;;;;10.98;2.47;;;17.70;99.90;;;;;;5108953;28;20039;-61
2023/08/07 11:33:45;;;;;;;14.65;2.08;;;17.60;99.90;;;;;;5116113;27;20035;-60
2023/08/07 11:36:12;;;;;;;8.50;3.00;;;17.30;99.90;;;;;;5116134;28;20035;-60
2023/08/07 11:38:43;;;;;;;7.60;2.65;;;17.30;99.90;;;;;;5116090;28;20043;-60
2023/08/07 11:41:10;;;;;;;7.88;2.10;;;17.00;99.90;;;;;;5116083;28;20055;-61
2023/08/07 11:43:37;;;;;;;10.45;2.30;;;16.50;99.90;;;;;;5116079;28;20039;-60
2023/08/07 11:46:07;;;;;;;7.22;1.83;;;16.50;99.90;;;;;;5114443;28;20039;-61
2023/08/07 11:48:38;;;;;;;6.00;1.30;;;16.20;99.90;;;;;;5088645;28;20135;-60
2023/08/07 11:51:04;;;;;;;3.88;1.00;;;16.00;99.90;;;;;;5106603;28;20036;-59
2023/08/07 11:53:32;;;;;;;4.13;1.42;;;15.80;99.90;;;;;;5114929;28;20032;-61
2023/08/07 11:56:04;;;;;;;8.98;1.90;;;15.70;99.90;;;;;;5107620;28;20070;-61
2023/08/07 11:58:39;;;;;;;5.45;1.95;;;15.70;99.90;;;;;;5112793;28;20496;-61
2023/08/07 12:01:21;;;;;;;10.38;2.50;;;15.80;99.90;;;;;;5114490;28;20119;-61
2023/08/07 12:04:09;;;;;;;8.73;2.35;;;15.80;99.90;;;;;;5115652;28;20074;-61
2023/08/07 12:06:35;;;;;;;4.43;1.80;;;15.90;99.90;;;;;;5115388;28;20100;-61
2023/08/07 12:09:02;;;;;;;5.80;2.30;;;15.90;99.90;;;;;;5115693;28;20046;-60
2023/08/07 12:11:30;;;;;;;13.43;3.20;;;15.70;99.90;;;;;;5114388;28;20039;-61
2023/08/07 12:13:55;;;;;;;9.18;2.30;;;15.60;99.90;;;;;;5115063;28;20043;-60
2023/08/07 12:16:22;;;;;;;9.65;2.83;;;15.60;99.90;;;;;;5115245;28;20060;-61
2023/08/07 12:18:49;;;;;;;6.63;2.13;;;15.50;99.90;;;;;;5115415;28;20027;-61
2023/08/07 12:21:19;;;;;;;10.20;2.22;;;15.50;99.90;;;;;;5107894;28;20039;-61
2023/08/07 12:23:47;;;;;;;6.22;2.10;;;15.40;99.90;;;;;;5115694;28;20081;-61
2023/08/07 12:26:13;;;;;;;8.57;2.53;;;15.50;99.90;;;;;;5107735;28;20040;-60
2023/08/07 12:28:39;;;;;;;6.88;2.40;;;15.60;99.90;;;;;;5115740;28;20395;-61
2023/08/07 12:31:05;;;;;;;14.20;3.42;;;15.70;99.90;;;;;;5115260;28;20047;-61
2023/08/07 12:33:30;;;;;;;9.98;3.63;;;16.10;99.90;;;;;;5114914;28;20390;-60
2023/08/07 12:35:57;;;;;;;7.72;3.10;;;16.50;99.90;;;;;;5115028;28;20489;-61
2023/08/07 12:38:23;;;;;;;10.68;2.45;;;16.80;99.90;;;;;;5114823;28;20470;-59
2023/08/07 12:40:49;;;;;;;6.38;2.67;;;17.00;99.90;;;;;;5114959;28;20043;-60
2023/08/07 12:43:15;;;;;;;9.85;2.50;;;17.40;99.90;;;;;;5114775;28;20067;-61